Time;durP1;ratioP1;P1;durP2;ratioP2;P2;SDS_P1;SDS_P2;PMS_P1;PMS_P2;Temp;Humidity;BMP_temperature;BMP_pressure;BME280_temperature;BME280_humidity;BME280_pressure;Samples;Min_cycle;Max_cycle;Signal;HPM_P1;HPM_P2
2021/11/16 00:01:27;;;;;;;50.22;25.27;;;179.60;2252.80;;;;;;4938503;29;20065;-91
2021/11/16 00:03:55;;;;;;;;;;;179.40;2252.80;;;;;;4938783;29;20030;-77
2021/11/16 00:06:23;;;;;;;46.75;25.70;;;179.30;2252.80;;;;;;4945941;28;19906;-76
2021/11/16 00:08:49;;;;;;;47.45;25.88;;;179.20;2252.80;;;;;;4955085;28;20388;-82
2021/11/16 00:11:15;;;;;;;;;;;179.20;2252.80;;;;;;4946421;28;20029;-88
2021/11/16 00:13:41;;;;;;;45.25;24.13;;;154.50;2252.80;;;;;;4946153;28;19906;-79
2021/11/16 00:16:07;;;;;;;45.50;25.77;;;179.20;2252.80;;;;;;4948323;28;20122;-89
2021/11/16 00:18:35;;;;;;;43.90;26.10;;;179.30;2252.80;;;;;;4946287;28;20043;-81
2021/11/16 00:21:04;;;;;;;44.28;25.42;;;179.40;2252.80;;;;;;4949215;28;20020;-88
2021/11/16 00:23:36;;;;;;;45.70;26.42;;;179.40;2252.80;;;;;;4963890;28;20026;-82
2021/11/16 00:26:07;;;;;;;44.63;24.80;;;179.40;2252.80;;;;;;4947807;28;20023;-77
2021/11/16 00:28:34;;;;;;;46.97;26.27;;;179.40;2252.80;;;;;;4969867;28;20094;-86
2021/11/16 00:31:00;;;;;;;52.22;27.73;;;179.20;2252.80;;;;;;4968716;28;20086;-80
2021/11/16 00:33:27;;;;;;;55.05;28.85;;;154.50;2252.80;;;;;;4951055;28;20070;-83
2021/11/16 00:35:54;;;;;;;48.97;27.20;;;154.50;2252.80;;;;;;4952523;28;20138;-79
2021/11/16 00:38:21;;;;;;;53.72;27.45;;;179.20;2252.80;;;;;;4964269;28;20376;-91
2021/11/16 00:40:48;;;;;;;54.88;27.27;;;154.50;2252.80;;;;;;4952077;28;20391;-86
2021/11/16 00:43:15;;;;;;;47.92;27.42;;;154.30;2252.80;;;;;;4964032;28;20027;-91
2021/11/16 00:45:43;;;;;;;52.30;28.75;;;154.20;2252.80;;;;;;4950338;28;20110;-83
2021/11/16 00:48:10;;;;;;;48.42;26.90;;;154.10;2252.80;;;;;;4949777;28;20566;-78
2021/11/16 00:50:39;;;;;;;44.13;25.38;;;154.40;2252.80;;;;;;4949750;28;20452;-75
2021/11/16 00:53:05;;;;;;;46.30;24.40;;;153.90;2252.80;;;;;;4947079;28;20074;-80
2021/11/16 00:55:32;;;;;;;46.85;26.75;;;153.90;2252.80;;;;;;4941730;29;20502;-91
2021/11/16 00:57:57;;;;;;;48.55;25.10;;;153.90;2252.80;;;;;;4951874;28;20427;-77
2021/11/16 01:00:24;;;;;;;;;;;154.10;2252.80;;;;;;4950371;28;20055;-85
2021/11/16 01:02:50;;;;;;;45.60;23.73;;;154.50;2252.80;;;;;;4952506;28;19906;-83
2021/11/16 01:05:16;;;;;;;46.53;24.50;;;154.10;2252.80;;;;;;4950261;28;20081;-77
2021/11/16 01:07:42;;;;;;;;;;;154.20;2252.80;;;;;;4958527;29;20027;-77
2021/11/16 01:10:11;;;;;;;42.55;22.25;;;154.10;2252.80;;;;;;4947396;28;20433;-78
2021/11/16 01:12:38;;;;;;;46.80;24.40;;;154.10;2252.80;;;;;;4949855;28;20027;-82
2021/11/16 01:15:06;;;;;;;44.78;24.75;;;154.10;2252.80;;;;;;4967833;28;20109;-82
2021/11/16 01:17:32;;;;;;;48.08;25.50;;;154.50;2252.80;;;;;;4949000;28;20422;-76
2021/11/16 01:19:58;;;;;;;39.28;23.30;;;154.50;2252.80;;;;;;4958554;29;20019;-91
2021/11/16 01:22:24;;;;;;;;;;;154.30;2252.80;;;;;;4958439;29;20027;-79
2021/11/16 01:24:50;;;;;;;40.80;21.02;;;154.10;2252.80;;;;;;4941124;29;19977;-82
2021/11/16 01:27:18;;;;;;;;;;;154.00;2252.80;;;;;;4949904;29;20035;-92
2021/11/16 01:29:49;;;;;;;42.70;20.38;;;154.00;2252.80;;;;;;4952994;28;19906;-90
2021/11/16 01:35:11;;;;;;;37.38;21.58;;;154.10;2252.80;;;;;;4858220;29;20139;-86
2021/11/16 01:37:37;;;;;;;39.80;21.80;;;154.30;2252.80;;;;;;4846013;29;20041;-91
2021/11/16 01:40:07;;;;;;;52.25;25.25;;;154.20;2252.80;;;;;;4862705;29;20053;-92
2021/11/16 01:42:33;;;;;;;43.25;21.77;;;154.10;2252.80;;;;;;4863310;29;20029;-91
2021/11/16 01:44:59;;;;;;;42.20;23.10;;;154.20;2252.80;;;;;;4862014;29;20129;-80
2021/11/16 01:47:25;;;;;;;;;;;154.30;2252.80;;;;;;4862040;29;20109;-78
2021/11/16 01:49:51;;;;;;;39.95;22.42;;;154.40;2252.80;;;;;;4853494;29;19908;-87
2021/11/16 01:52:17;;;;;;;;;;;154.20;2252.80;;;;;;4862252;29;20097;-91
2021/11/16 01:54:43;;;;;;;38.42;21.33;;;154.20;2252.80;;;;;;4861561;29;20011;-88
2021/11/16 01:57:09;;;;;;;;;;;154.10;2252.80;;;;;;4861793;29;20044;-84
2021/11/16 01:59:35;;;;;;;43.25;22.50;;;154.20;2252.80;;;;;;4862217;29;20003;-90
2021/11/16 02:02:01;;;;;;;43.35;23.60;;;154.00;2252.80;;;;;;4845498;29;20033;-88
2021/11/16 02:04:27;;;;;;;44.45;25.08;;;153.90;2252.80;;;;;;4846371;29;20194;-84
2021/11/16 02:06:53;;;;;;;42.45;25.48;;;154.00;2252.80;;;;;;4863413;29;20062;-88
2021/11/16 02:09:19;;;;;;;;;;;154.00;2252.80;;;;;;4854904;29;20077;-82
2021/11/16 02:11:46;;;;;;;45.28;24.75;;;154.10;2252.80;;;;;;4919972;29;19941;-92
2021/11/16 02:14:14;;;;;;;47.40;24.75;;;154.10;2252.80;;;;;;4957756;28;20015;-77
2021/11/16 02:16:42;;;;;;;46.03;25.15;;;154.00;2252.80;;;;;;4957427;29;20506;-87
2021/11/16 02:19:10;;;;;;;47.80;26.48;;;154.10;2252.80;;;;;;4957835;29;20021;-87
2021/11/16 02:21:37;;;;;;;46.20;26.50;;;154.10;2252.80;;;;;;4940349;29;20498;-77
2021/11/16 02:24:05;;;;;;;47.92;27.15;;;154.00;2252.80;;;;;;4957580;29;20019;-88
2021/11/16 02:26:32;;;;;;;51.70;26.50;;;154.00;2252.80;;;;;;4957019;29;20470;-77
2021/11/16 02:28:58;;;;;;;47.05;25.48;;;153.80;2252.80;;;;;;4939855;29;20468;-79
2021/11/16 02:31:25;;;;;;;49.35;26.58;;;153.80;2252.80;;;;;;4939962;29;20039;-87
2021/11/16 02:33:51;;;;;;;50.13;27.17;;;153.90;2252.80;;;;;;4940486;29;20113;-89
2021/11/16 02:36:17;;;;;;;;;;;153.90;2252.80;;;;;;4940439;29;20023;-80
2021/11/16 02:38:43;;;;;;;49.50;26.17;;;153.90;2252.80;;;;;;4956621;29;20009;-86
2021/11/16 02:41:10;;;;;;;47.65;24.58;;;154.20;2252.80;;;;;;4937651;29;20083;-82
2021/11/16 02:43:38;;;;;;;47.22;27.70;;;154.00;2252.80;;;;;;4939753;29;20122;-88
2021/11/16 02:46:04;;;;;;;46.92;25.30;;;154.00;2252.80;;;;;;4939571;29;20172;-86
2021/11/16 02:48:34;;;;;;;;;;;153.90;2252.80;;;;;;4957168;29;20019;-90
2021/11/16 02:51:05;;;;;;;43.13;22.95;;;153.80;2252.80;;;;;;4956341;28;20425;-90
2021/11/16 02:53:30;;;;;;;49.05;25.73;;;153.80;2252.80;;;;;;4939669;29;20406;-88
2021/11/16 02:55:56;;;;;;;;;;;153.80;2252.80;;;;;;4956804;28;20023;-77
2021/11/16 02:58:24;;;;;;;44.78;24.10;;;153.70;2252.80;;;;;;4939036;29;20028;-90
2021/11/16 03:01:06;;;;;;;44.45;24.58;;;153.70;2252.80;;;;;;4956780;29;20019;-78
2021/11/16 03:03:32;;;;;;;41.05;22.77;;;153.70;2252.80;;;;;;4939611;29;20027;-88
2021/11/16 03:05:58;;;;;;;;;;;153.60;2252.80;;;;;;4956707;29;20061;-77
2021/11/16 03:08:28;;;;;;;36.67;21.15;;;128.70;2252.80;;;;;;4956458;29;20001;-88
2021/11/16 03:10:57;;;;;;;40.08;21.08;;;128.50;2252.80;;;;;;4949962;28;20109;-88
2021/11/16 03:13:24;;;;;;;42.80;22.83;;;128.20;2252.80;;;;;;4960638;28;20030;-78
2021/11/16 03:15:51;;;;;;;36.65;21.50;;;128.30;2252.80;;;;;;4967566;28;20352;-89
2021/11/16 03:18:17;;;;;;;42.10;21.10;;;128.70;2252.80;;;;;;4947762;28;20479;-79
2021/11/16 03:20:44;;;;;;;39.65;21.45;;;128.90;2252.80;;;;;;4950503;28;20034;-89
2021/11/16 03:23:18;;;;;;;43.58;22.23;;;128.80;2252.80;;;;;;4947279;28;20046;-77
2021/11/16 03:25:51;;;;;;;39.42;21.98;;;128.70;2252.80;;;;;;4956189;29;20120;-77
2021/11/16 03:28:18;;;;;;;35.50;20.85;;;128.90;2252.80;;;;;;4947621;28;20475;-89
2021/11/16 03:30:47;;;;;;;37.88;19.65;;;128.80;2252.80;;;;;;4965332;28;20481;-77
2021/11/16 03:33:13;;;;;;;38.97;19.92;;;128.70;2252.80;;;;;;4947633;28;20031;-88
2021/11/16 03:35:40;;;;;;;;;;;128.80;2252.80;;;;;;4951083;28;20030;-80
2021/11/16 03:38:07;;;;;;;29.55;14.70;;;128.70;2252.80;;;;;;4964545;28;19914;-76
2021/11/16 03:40:36;;;;;;;36.45;18.75;;;128.60;2252.80;;;;;;4944887;28;20030;-87
2021/11/16 03:43:03;;;;;;;36.75;20.83;;;128.40;2252.80;;;;;;4967378;28;20024;-77
2021/11/16 03:45:30;;;;;;;36.72;18.33;;;128.30;2252.80;;;;;;4964523;28;20058;-81
2021/11/16 03:47:58;;;;;;;37.72;20.50;;;128.00;2252.80;;;;;;4964883;28;20471;-78
2021/11/16 03:50:26;;;;;;;33.75;17.98;;;103.30;2227.20;;;;;;4949749;28;20030;-88
2021/11/16 03:52:54;;;;;;;31.40;18.65;;;128.00;2252.80;;;;;;4947350;28;20066;-79
2021/11/16 03:55:22;;;;;;;36.47;18.25;;;128.20;2252.80;;;;;;4948942;28;20106;-77
2021/11/16 03:57:52;;;;;;;32.17;17.70;;;128.00;2252.80;;;;;;4947350;28;20035;-89
2021/11/16 04:00:20;;;;;;;35.33;17.60;;;128.00;2252.80;;;;;;4963560;28;20023;-87
2021/11/16 04:02:46;;;;;;;29.45;16.95;;;128.30;2252.80;;;;;;4954801;28;20050;-87
2021/11/16 04:05:12;;;;;;;;;;;128.40;2252.80;;;;;;4950263;28;20459;-80
2021/11/16 04:07:39;;;;;;;31.23;16.75;;;128.40;2252.80;;;;;;4948319;28;19906;-87
2021/11/16 04:10:11;;;;;;;26.65;16.08;;;128.40;2252.80;;;;;;4948967;28;20076;-88
2021/11/16 04:12:37;;;;;;;29.50;15.77;;;128.30;2252.80;;;;;;4967068;28;20030;-84
2021/11/16 04:15:04;;;;;;;27.67;15.02;;;128.10;2252.80;;;;;;4949330;28;20438;-77
2021/11/16 04:17:32;;;;;;;28.00;14.75;;;128.10;2252.80;;;;;;4963863;28;20035;-88
2021/11/16 04:20:00;;;;;;;27.08;14.48;;;128.40;2252.80;;;;;;4948381;28;20514;-89
2021/11/16 04:22:29;;;;;;;25.45;14.00;;;128.80;2252.80;;;;;;4951354;28;20038;-84
2021/11/16 04:24:54;;;;;;;28.33;13.75;;;128.90;2252.80;;;;;;4947478;28;20027;-78
2021/11/16 04:27:20;;;;;;;;;;;153.60;2252.80;;;;;;4965846;28;20031;-84
2021/11/16 04:29:46;;;;;;;27.63;13.82;;;153.60;2252.80;;;;;;4965888;28;19968;-80
2021/11/16 04:32:11;;;;;;;;;;;128.70;2252.80;;;;;;4955736;29;20106;-78
2021/11/16 04:34:37;;;;;;;22.55;11.75;;;128.50;2252.80;;;;;;4955212;29;19906;-80
2021/11/16 04:37:04;;;;;;;;;;;128.50;2252.80;;;;;;4963375;28;20062;-87
2021/11/16 04:39:30;;;;;;;21.00;10.30;;;128.70;2252.80;;;;;;4966053;28;20385;-80
2021/11/16 04:41:55;;;;;;;;;;;128.70;2252.80;;;;;;4938824;29;20035;-83
2021/11/16 04:44:21;;;;;;;21.17;11.57;;;128.80;2252.80;;;;;;4955021;29;19913;-87
2021/11/16 04:46:47;;;;;;;;;;;128.80;2252.80;;;;;;4948604;28;20027;-77
2021/11/16 05:04:49;;;;;;;23.35;13.20;;;153.80;2252.80;;;;;;4964262;28;20079;-77
2021/11/16 05:07:17;;;;;;;26.48;13.00;;;154.00;2252.80;;;;;;4948777;28;20460;-84
2021/11/16 05:09:52;;;;;;;29.08;12.85;;;154.10;2252.80;;;;;;4938142;29;20142;-85
2021/11/16 05:12:18;;;;;;;27.08;13.23;;;154.10;2252.80;;;;;;4946674;28;20024;-80
2021/11/16 05:14:45;;;;;;;21.50;13.38;;;154.10;2252.80;;;;;;4951165;28;20051;-77
2021/11/16 05:17:11;;;;;;;24.10;13.73;;;154.20;2252.80;;;;;;4941187;29;20097;-86
2021/11/16 05:19:36;;;;;;;;;;;154.20;2252.80;;;;;;4949775;28;20467;-87
2021/11/16 05:22:03;;;;;;;32.88;14.35;;;154.20;2252.80;;;;;;4958510;29;19996;-86
2021/11/16 05:24:28;;;;;;;25.98;13.15;;;154.30;2252.80;;;;;;4958387;29;20039;-86
2021/11/16 05:26:55;;;;;;;;;;;154.40;2252.80;;;;;;4967011;28;20077;-86
2021/11/16 05:29:21;;;;;;;26.20;12.32;;;179.20;2252.80;;;;;;4943787;28;20283;-81
2021/11/16 05:31:47;;;;;;;30.65;13.20;;;179.20;2252.80;;;;;;4949431;28;20019;-87
2021/11/16 05:34:12;;;;;;;;;;;179.30;2252.80;;;;;;4952003;28;20545;-87
2021/11/16 05:36:38;;;;;;;42.10;18.60;;;179.40;2252.80;;;;;;4949467;28;20364;-76
2021/11/16 05:39:04;;;;;;;;;;;179.40;2252.80;;;;;;4969859;28;20027;-86
2021/11/16 05:41:30;;;;;;;23.30;12.38;;;179.50;2252.80;;;;;;4967236;28;20409;-77
2021/11/16 05:43:57;;;;;;;28.58;14.10;;;179.60;2252.80;;;;;;4949174;28;20027;-82
2021/11/16 05:46:23;;;;;;;25.95;13.43;;;179.60;2252.80;;;;;;4968160;28;20022;-89
2021/11/16 05:48:54;;;;;;;23.40;11.85;;;179.70;2252.80;;;;;;4950705;28;20031;-84
2021/11/16 05:51:23;;;;;;;23.63;12.18;;;179.80;2252.80;;;;;;4949608;28;20110;-81
2021/11/16 05:53:57;;;;;;;24.65;11.85;;;179.90;2252.80;;;;;;4969376;28;20020;-78
2021/11/16 05:56:28;;;;;;;22.13;12.57;;;179.90;2252.80;;;;;;4948931;28;20026;-77
2021/11/16 05:58:56;;;;;;;25.63;13.02;;;180.00;2252.80;;;;;;4951505;28;20035;-87
2021/11/16 06:01:23;;;;;;;25.02;12.73;;;180.00;2252.80;;;;;;4966018;28;20113;-82
2021/11/16 06:03:52;;;;;;;27.08;12.18;;;180.10;2252.80;;;;;;4953259;28;20035;-87
2021/11/16 06:06:23;;;;;;;25.02;12.18;;;180.10;2252.80;;;;;;4948719;28;20027;-82
2021/11/16 06:08:50;;;;;;;23.40;12.52;;;180.10;2252.80;;;;;;4951690;28;20054;-77
2021/11/16 06:11:17;;;;;;;27.50;14.90;;;180.10;2252.80;;;;;;4949524;28;20038;-88
2021/11/16 06:13:44;;;;;;;33.03;13.13;;;180.00;2252.80;;;;;;4968890;28;20085;-77
2021/11/16 06:16:11;;;;;;;28.25;14.70;;;180.00;2252.80;;;;;;4966795;28;20023;-77
2021/11/16 06:18:38;;;;;;;28.45;12.88;;;180.10;2252.80;;;;;;4940474;29;20043;-79
2021/11/16 06:21:03;;;;;;;28.80;14.43;;;180.10;2252.80;;;;;;4946920;28;20030;-89
2021/11/16 06:23:29;;;;;;;;;;;180.10;2252.80;;;;;;4952207;28;20035;-85
2021/11/16 06:25:55;;;;;;;32.22;15.57;;;204.80;2252.80;;;;;;4967902;28;19917;-76
2021/11/16 06:28:21;;;;;;;36.10;16.40;;;204.80;2252.80;;;;;;4951484;28;20032;-89
2021/11/16 06:30:47;;;;;;;;;;;204.90;2252.80;;;;;;4953253;28;20023;-90
2021/11/16 06:33:18;;;;;;;24.77;13.73;;;204.90;2252.80;;;;;;4967667;28;19913;-79
2021/11/16 06:35:44;;;;;;;23.60;13.48;;;204.90;2252.80;;;;;;4967551;28;20034;-87
2021/11/16 06:38:09;;;;;;;;;;;205.00;2252.80;;;;;;4957410;29;20035;-77
2021/11/16 06:40:35;;;;;;;27.38;13.77;;;205.00;2252.80;;;;;;4950175;28;20286;-76
2021/11/16 06:43:01;;;;;;;;;;;205.00;2252.80;;;;;;4967711;28;20110;-80
2021/11/16 06:45:26;;;;;;;25.55;13.88;;;205.10;2252.80;;;;;;4966046;28;19949;-77
2021/11/16 06:47:52;;;;;;;;;;;205.10;2252.80;;;;;;4947139;28;20031;-85
2021/11/16 06:50:18;;;;;;;25.77;13.43;;;205.10;2252.80;;;;;;4962130;28;19914;-85
2021/11/16 06:52:44;;;;;;;;;;;205.10;2252.80;;;;;;4965948;28;20019;-87
2021/11/16 06:55:10;;;;;;;23.05;12.48;;;205.20;2252.80;;;;;;4968183;28;19918;-85
2021/11/16 06:57:38;;;;;;;;;;;205.20;2252.80;;;;;;4963177;28;20051;-78
2021/11/16 07:00:06;;;;;;;;;;;205.30;2252.80;;;;;;4947865;29;20014;-84
2021/11/16 07:02:32;;;;;;;31.20;15.52;;;205.40;2252.80;;;;;;4952319;28;19906;-85
2021/11/16 07:04:58;;;;;;;25.00;13.95;;;205.50;2252.80;;;;;;4948034;28;20106;-87
2021/11/16 07:07:23;;;;;;;;;;;205.60;2252.80;;;;;;4962368;28;20101;-85
2021/11/16 07:09:49;;;;;;;23.95;13.65;;;205.70;2252.80;;;;;;4966436;28;19930;-77
2021/11/16 07:12:17;;;;;;;;;;;230.40;2252.80;;;;;;4948692;28;20403;-82
2021/11/16 07:14:44;;;;;;;19.38;10.27;;;230.50;2252.80;;;;;;4956531;29;19976;-85
2021/11/16 07:17:13;;;;;;;23.50;11.13;;;230.60;2252.80;;;;;;4949945;28;20033;-77
2021/11/16 07:19:46;;;;;;;22.05;11.05;;;230.60;2252.80;;;;;;4966525;28;20065;-85
2021/11/16 07:22:21;;;;;;;19.85;10.70;;;230.70;2252.80;;;;;;4948867;28;20055;-82
2021/11/16 07:24:50;;;;;;;23.70;12.10;;;230.80;2252.80;;;;;;4962573;28;20030;-86
2021/11/16 07:27:22;;;;;;;20.45;11.43;;;230.90;2252.80;;;;;;4965012;28;20026;-82
2021/11/16 07:30:00;;;;;;;19.08;9.95;;;230.90;2252.80;;;;;;4965183;28;20078;-85
2021/11/16 07:32:33;;;;;;;27.42;11.52;;;231.00;2252.80;;;;;;4962143;28;20468;-88
2021/11/16 07:35:05;;;;;;;21.80;10.65;;;231.10;2252.80;;;;;;4964742;28;20114;-84
2021/11/16 07:37:35;;;;;;;26.13;9.88;;;231.10;2252.80;;;;;;4940055;28;20043;-86
2021/11/16 07:40:16;;;;;;;18.10;8.90;;;231.20;2252.80;;;;;;4967371;28;20030;-81
2021/11/16 07:42:48;;;;;;;19.13;9.10;;;231.20;2252.80;;;;;;4938783;29;20107;-78
2021/11/16 07:45:27;;;;;;;17.80;9.73;;;231.30;2252.80;;;;;;4948582;28;20472;-77
2021/11/16 07:47:56;;;;;;;21.30;8.82;;;256.00;2252.80;;;;;;4947604;28;20020;-87
2021/11/16 07:50:31;;;;;;;17.63;9.20;;;256.10;2252.80;;;;;;4964568;28;20047;-78
2021/11/16 07:53:24;;;;;;;14.68;7.70;;;256.20;2252.80;;;;;;4965237;28;20057;-77
2021/11/16 07:55:53;;;;;;;13.93;6.35;;;256.20;2252.80;;;;;;4962827;28;20031;-85
2021/11/16 07:58:24;;;;;;;13.63;7.63;;;256.30;2252.80;;;;;;4965030;28;20079;-85
2021/11/16 08:00:52;;;;;;;16.38;9.00;;;256.30;2252.80;;;;;;4945365;28;20023;-77
2021/11/16 08:03:22;;;;;;;12.55;7.78;;;256.40;2252.80;;;;;;4964388;28;20037;-88
2021/11/16 08:08:53;;;;;;;18.55;6.72;;;256.50;2252.80;;;;;;4961300;28;20126;-77
2021/11/16 08:14:05;;;;;;;19.17;8.05;;;256.50;2252.80;;;;;;4965410;28;20110;-78
2021/11/16 08:16:32;;;;;;;14.90;8.55;;;256.50;2252.80;;;;;;4959823;28;20019;-77
2021/11/16 08:19:10;;;;;;;18.08;8.43;;;256.50;2252.80;;;;;;4965280;28;20559;-77
2021/11/16 08:21:41;;;;;;;17.20;9.05;;;256.60;2252.80;;;;;;4945524;28;20114;-76
2021/11/16 08:24:10;;;;;;;14.52;8.10;;;256.60;2252.80;;;;;;4948616;28;20478;-85
2021/11/16 08:26:42;;;;;;;15.52;7.80;;;256.60;2252.80;;;;;;4962125;28;20027;-77
2021/11/16 08:29:11;;;;;;;16.83;8.65;;;256.60;2252.80;;;;;;4960777;28;20027;-81
2021/11/16 08:31:46;;;;;;;17.85;8.32;;;256.60;2252.80;;;;;;4949033;28;20050;-76
2021/11/16 08:34:12;;;;;;;14.82;6.35;;;256.60;2252.80;;;;;;4948554;28;20042;-76
2021/11/16 08:36:56;;;;;;;15.68;7.88;;;256.60;2252.80;;;;;;4946613;28;20081;-76
2021/11/16 08:39:36;;;;;;;15.43;8.35;;;256.70;2252.80;;;;;;4947633;28;20499;-76
2021/11/16 08:42:08;;;;;;;19.70;9.88;;;256.70;2252.80;;;;;;4946583;28;20388;-77
2021/11/16 08:44:48;;;;;;;16.52;9.85;;;256.70;2252.80;;;;;;4962204;28;20031;-77
2021/11/16 08:47:15;;;;;;;22.70;9.70;;;256.90;2252.80;;;;;;4961780;28;20078;-78
2021/11/16 08:49:44;;;;;;;19.20;9.57;;;256.90;2252.80;;;;;;4949777;28;20483;-77
2021/11/16 08:52:15;;;;;;;20.55;10.10;;;256.90;2252.80;;;;;;4946975;28;20499;-75
2021/11/16 08:54:54;;;;;;;29.50;10.48;;;281.60;2278.40;;;;;;4969888;28;20023;-76
2021/11/16 08:57:21;;;;;;;19.73;9.93;;;281.70;2278.40;;;;;;4948877;28;20506;-76
2021/11/16 08:59:47;;;;;;;28.17;11.18;;;281.70;2278.40;;;;;;4940975;29;20807;-76
2021/11/16 09:02:13;;;;;;;22.10;12.18;;;281.80;2278.40;;;;;;4949765;28;20055;-76
2021/11/16 09:04:40;;;;;;;23.92;10.80;;;281.80;2278.40;;;;;;4950222;28;20486;-75
2021/11/16 09:07:30;;;;;;;21.60;11.75;;;281.80;2278.40;;;;;;4968412;28;20026;-78
2021/11/16 09:09:58;;;;;;;19.10;11.05;;;281.90;2278.40;;;;;;4895445;29;20120;-80
2021/11/16 09:12:50;;;;;;;17.92;9.50;;;281.90;2278.40;;;;;;4902144;29;20135;-77
2021/11/16 09:15:44;;;;;;;22.17;10.50;;;281.90;2278.40;;;;;;4902419;29;20484;-77
2021/11/16 09:18:29;;;;;;;17.85;9.88;;;281.90;2278.40;;;;;;4883278;29;20052;-76
2021/11/16 09:20:57;;;;;;;26.75;11.40;;;282.00;2278.40;;;;;;4901773;29;20118;-76
2021/11/16 09:23:30;;;;;;;23.15;13.18;;;282.20;2278.40;;;;;;4888400;29;20063;-77
2021/11/16 09:28:53;;;;;;;22.52;10.77;;;282.10;2278.40;;;;;;4899067;29;20035;-80
2021/11/16 09:31:35;;;;;;;20.25;11.88;;;282.20;2278.40;;;;;;4883202;29;20524;-76
2021/11/16 09:34:20;;;;;;;19.17;8.57;;;282.40;2278.40;;;;;;4898751;29;20039;-79
2021/11/16 09:36:55;;;;;;;19.65;10.00;;;282.30;2278.40;;;;;;4898979;29;20040;-76
2021/11/16 09:39:43;;;;;;;18.20;10.52;;;282.40;2278.40;;;;;;4898606;29;20036;-76
2021/11/16 09:42:13;;;;;;;27.27;11.68;;;282.50;2278.40;;;;;;4883681;29;20029;-84
2021/11/16 09:44:49;;;;;;;20.40;13.20;;;307.20;2304.00;;;;;;4882755;29;20119;-77
2021/11/16 09:47:27;;;;;;;17.77;7.72;;;307.30;2304.00;;;;;;4942470;28;20036;-76
2021/11/16 09:50:16;;;;;;;30.95;13.68;;;282.50;2278.40;;;;;;4962758;28;20171;-76
2021/11/16 09:52:56;;;;;;;22.75;11.82;;;282.40;2278.40;;;;;;4957642;29;20065;-77
2021/11/16 09:55:24;;;;;;;22.77;9.77;;;282.50;2278.40;;;;;;4967447;28;20113;-77
2021/11/16 09:58:11;;;;;;;15.55;7.70;;;307.30;2304.00;;;;;;4976729;28;20093;-76
2021/11/16 10:00:42;;;;;;;18.08;9.48;;;307.20;2304.00;;;;;;4961973;28;20054;-76
2021/11/16 10:03:14;;;;;;;16.92;9.65;;;307.40;2304.00;;;;;;4976579;28;20471;-78
2021/11/16 10:05:48;;;;;;;23.02;11.75;;;307.60;2304.00;;;;;;4976775;28;20055;-76
2021/11/16 10:08:17;;;;;;;17.40;9.13;;;307.50;2304.00;;;;;;4959050;28;20387;-76
2021/11/16 10:10:45;;;;;;;18.05;10.05;;;307.50;2304.00;;;;;;4976723;28;20023;-77
2021/11/16 10:13:20;;;;;;;26.40;11.85;;;307.60;2304.00;;;;;;4959223;28;20034;-76
2021/11/16 10:15:53;;;;;;;15.55;8.93;;;307.70;2304.00;;;;;;4958287;28;20030;-76
2021/11/16 10:18:21;;;;;;;22.27;10.30;;;307.70;2304.00;;;;;;4963468;28;20114;-76
2021/11/16 10:20:48;;;;;;;18.05;9.38;;;307.80;2304.00;;;;;;4947927;28;20077;-75
2021/11/16 10:23:39;;;;;;;17.67;10.52;;;307.80;2304.00;;;;;;4948789;28;20488;-79
2021/11/16 10:26:06;;;;;;;19.50;10.52;;;307.80;2304.00;;;;;;4964031;28;20030;-76
2021/11/16 10:28:37;;;;;;;20.38;10.02;;;308.00;2304.00;;;;;;4949289;28;20034;-77
2021/11/16 10:31:03;;;;;;;24.45;12.30;;;307.90;2304.00;;;;;;4948585;28;20490;-83
2021/11/16 10:33:39;;;;;;;18.02;10.85;;;308.10;2304.00;;;;;;4967241;28;20089;-82
2021/11/16 10:36:08;;;;;;;19.70;10.20;;;332.90;2329.60;;;;;;4960594;28;20114;-90
2021/11/16 10:38:38;;;;;;;19.30;9.75;;;332.90;2329.60;;;;;;4963068;28;20168;-90
2021/11/16 10:41:06;;;;;;;15.70;8.73;;;332.90;2329.60;;;;;;4962617;28;20030;-86
2021/11/16 10:44:04;;;;;;;19.13;9.45;;;333.10;2304.00;;;;;;4957099;29;20034;-78
2021/11/16 10:46:34;;;;;;;18.23;10.00;;;332.90;2278.40;;;;;;4947862;28;20027;-83
2021/11/16 10:49:09;;;;;;;19.25;10.13;;;308.10;2252.80;;;;;;4966288;28;20022;-89
2021/11/16 10:51:36;;;;;;;15.15;8.95;;;332.80;2278.40;;;;;;4948466;28;20038;-77
2021/11/16 10:54:03;;;;;;;21.48;10.60;;;308.00;2278.40;;;;;;4948471;28;20037;-83
2021/11/16 10:56:32;;;;;;;16.92;10.00;;;307.90;2278.40;;;;;;4947812;28;20039;-81
2021/11/16 10:59:10;;;;;;;14.68;8.13;;;308.00;2227.20;;;;;;4949945;28;20062;-83
2021/11/16 11:01:56;;;;;;;17.52;8.65;;;308.10;2252.80;;;;;;4938804;29;20134;-86
2021/11/16 11:04:27;;;;;;;13.68;8.35;;;333.00;2252.80;;;;;;4956457;29;20019;-79
2021/11/16 11:06:54;;;;;;;13.55;8.40;;;332.90;2227.20;;;;;;4939812;29;20031;-78
2021/11/16 11:09:22;;;;;;;15.00;8.90;;;332.90;2252.80;;;;;;4956623;29;20043;-79
2021/11/16 11:11:54;;;;;;;21.20;9.63;;;333.00;2227.20;;;;;;4956582;28;20031;-78
2021/11/16 11:14:21;;;;;;;21.17;10.02;;;332.90;2252.80;;;;;;4975548;28;20109;-81
2021/11/16 11:17:02;;;;;;;14.45;8.00;;;333.00;2252.80;;;;;;4966359;28;20034;-75
2021/11/16 11:19:34;;;;;;;16.48;8.80;;;332.80;2227.20;;;;;;4938530;29;20039;-75
2021/11/16 11:22:17;;;;;;;15.20;10.23;;;332.80;2227.20;;;;;;4938950;29;20383;-77
2021/11/16 11:25:34;;;;;;;19.60;10.13;;;333.00;2227.20;;;;;;4938446;29;20497;-76
2021/11/16 11:27:53;;;;;;;19.33;9.43;;;332.90;2252.80;;;;;;4954869;29;20042;-76
2021/11/16 11:30:19;;;;;;;22.35;8.73;;;333.10;2252.80;;;;;;4955842;29;20030;-75
2021/11/16 11:32:49;;;;;;;17.70;9.63;;;333.10;2201.60;;;;;;4955756;29;20028;-75
2021/11/16 11:35:18;;;;;;;16.58;9.35;;;332.90;2227.20;;;;;;4955657;29;20030;-76
2021/11/16 11:37:46;;;;;;;15.77;8.88;;;308.10;2201.60;;;;;;4955511;29;20045;-80
2021/11/16 11:40:33;;;;;;;13.70;7.82;;;308.10;2252.80;;;;;;4961126;28;20030;-89
2021/11/16 11:43:08;;;;;;;17.23;9.32;;;308.10;2150.40;;;;;;4963917;28;20056;-76
2021/11/16 11:45:40;;;;;;;14.75;8.07;;;308.10;2201.60;;;;;;4937999;29;20115;-75
2021/11/16 11:48:07;;;;;;;16.52;8.82;;;307.90;2201.60;;;;;;4938281;29;20028;-76
2021/11/16 11:50:40;;;;;;;14.60;9.10;;;307.70;2227.20;;;;;;4954806;29;20088;-76
2021/11/16 11:53:10;;;;;;;13.07;7.30;;;307.70;2227.20;;;;;;4961886;28;20026;-76
2021/11/16 11:55:45;;;;;;;19.80;9.10;;;307.60;2176.00;;;;;;4963929;28;20027;-76
2021/11/16 11:58:14;;;;;;;17.85;10.00;;;307.80;2252.80;;;;;;4945302;28;20118;-75
2021/11/16 12:00:41;;;;;;;16.80;8.65;;;307.90;2227.20;;;;;;4966518;28;20035;-80
2021/11/16 12:03:09;;;;;;;19.67;9.65;;;307.90;2227.20;;;;;;4955069;29;20058;-78
2021/11/16 12:05:37;;;;;;;16.10;7.93;;;307.90;2176.00;;;;;;4965191;28;20156;-79
2021/11/16 12:08:04;;;;;;;17.15;9.68;;;307.90;2227.20;;;;;;4963600;28;20023;-86
2021/11/16 12:10:34;;;;;;;17.08;9.60;;;307.90;2201.60;;;;;;4965440;28;20031;-81
2021/11/16 12:13:05;;;;;;;17.95;10.13;;;307.90;2252.80;;;;;;4966155;28;20023;-76
2021/11/16 12:15:36;;;;;;;17.98;9.27;;;307.90;2227.20;;;;;;4964837;28;20022;-77
2021/11/16 12:18:03;;;;;;;16.73;9.80;;;307.70;2201.60;;;;;;4963289;28;20031;-83
2021/11/16 12:20:55;;;;;;;18.58;9.35;;;307.70;2227.20;;;;;;4949063;28;20490;-77
2021/11/16 12:23:47;;;;;;;20.35;9.68;;;307.60;2201.60;;;;;;4965283;28;20482;-77
2021/11/16 12:26:16;;;;;;;17.40;10.73;;;307.60;2201.60;;;;;;4954508;29;20078;-76
2021/11/16 12:28:44;;;;;;;24.35;11.82;;;307.70;2227.20;;;;;;4937371;29;20487;-77
2021/11/16 12:31:27;;;;;;;24.27;12.75;;;307.70;2252.80;;;;;;4945272;28;20034;-77
2021/11/16 12:33:55;;;;;;;18.20;9.35;;;307.80;2252.80;;;;;;4947120;28;20034;-76
2021/11/16 12:36:27;;;;;;;16.30;10.15;;;307.70;2201.60;;;;;;4945299;28;20031;-77
2021/11/16 12:38:53;;;;;;;17.92;10.30;;;307.70;2227.20;;;;;;4971127;28;20078;-76
2021/11/16 12:41:40;;;;;;;20.58;10.27;;;307.70;2227.20;;;;;;4974363;28;20022;-77
2021/11/16 12:44:11;;;;;;;;;;;307.60;2201.60;;;;;;4957294;28;20031;-76
2021/11/16 12:46:39;;;;;;;25.40;11.18;;;307.60;2227.20;;;;;;4956064;28;19958;-77
2021/11/16 12:49:08;;;;;;;22.05;12.38;;;307.60;2252.80;;;;;;4956865;28;20019;-76
2021/11/16 12:51:57;;;;;;;23.98;11.55;;;307.60;2278.40;;;;;;4974174;28;20471;-78
2021/11/16 12:54:26;;;;;;;18.30;10.80;;;307.60;2252.80;;;;;;4956122;28;20506;-79